BEL1CP EBBR-KJFK
Flight info
| Callsign | BEL1CP |
|---|---|
| Flight time | N/A |
| Altitude | 36000 |
| Route | DENUT L610 KOPUL DCT SAM M140 OXLOW DCT LEDGO DCT DINIM/M081F380 NATF MUSAK/N0459F400 N296B TUSKY DCT PLYMM PARCH4 |
| Aircraft | A333/H-SDE3GHIJ2J3J5M1RVWXY/LB2D1 |
Departure
| Time | 2026-05-06 09:26 |
|---|---|
| Airport | Brussels Airport (EBBR) |
Arrival
| Time | N/A |
|---|---|
| Airport | John F. Kennedy International Airport (KJFK) |
| Time | Latitude | Longitude | Altitude | Speed | Heading |
|---|---|---|---|---|---|
| 2026-05-06 08:38 | 50.90079 | 4.48733 | 134 ft | 0 kts | 155° |
| 2026-05-06 08:45 | 50.90080 | 4.48733 | 134 ft | 0 kts | 155° |
| 2026-05-06 08:55 | 50.90080 | 4.48732 | 134 ft | 0 kts | 155° |
| 2026-05-06 08:59 | 50.90081 | 4.48732 | 134 ft | 0 kts | 155° |
| 2026-05-06 09:12 | 50.90082 | 4.48732 | 134 ft | 0 kts | 155° |
| 2026-05-06 09:13 | 50.90082 | 4.48731 | 134 ft | 0 kts | 155° |
| 2026-05-06 09:14 | 50.90083 | 4.48731 | 134 ft | 2 kts | 155° |
| 2026-05-06 09:14 | 50.90105 | 4.48712 | 131 ft | 4 kts | 145° |
| 2026-05-06 09:14 | 50.90125 | 4.48685 | 131 ft | 4 kts | 123° |
| 2026-05-06 09:15 | 50.90132 | 4.48650 | 125 ft | 3 kts | 69° |
| 2026-05-06 09:15 | 50.90131 | 4.48646 | 125 ft | 2 kts | 65° |
| 2026-05-06 09:16 | 50.90131 | 4.48645 | 125 ft | 0 kts | 65° |
| 2026-05-06 09:18 | 50.90139 | 4.48671 | 125 ft | 6 kts | 65° |
| 2026-05-06 09:18 | 50.90160 | 4.48747 | 130 ft | 8 kts | 65° |
| 2026-05-06 09:18 | 50.90184 | 4.48830 | 127 ft | 8 kts | 65° |
| 2026-05-06 09:19 | 50.90209 | 4.48917 | 126 ft | 9 kts | 65° |
| 2026-05-06 09:19 | 50.90236 | 4.49007 | 128 ft | 9 kts | 65° |
| 2026-05-06 09:19 | 50.90263 | 4.49101 | 128 ft | 10 kts | 65° |
| 2026-05-06 09:19 | 50.90291 | 4.49199 | 127 ft | 10 kts | 66° |
| 2026-05-06 09:20 | 50.90320 | 4.49302 | 125 ft | 11 kts | 65° |
| 2026-05-06 09:20 | 50.90354 | 4.49420 | 124 ft | 13 kts | 65° |
| 2026-05-06 09:20 | 50.90388 | 4.49538 | 125 ft | 9 kts | 69° |
| 2026-05-06 09:20 | 50.90376 | 4.49621 | 124 ft | 7 kts | 134° |
| 2026-05-06 09:21 | 50.90338 | 4.49653 | 127 ft | 7 kts | 159° |
| 2026-05-06 09:21 | 50.90287 | 4.49678 | 128 ft | 8 kts | 162° |
| 2026-05-06 09:21 | 50.90226 | 4.49712 | 127 ft | 11 kts | 155° |
| 2026-05-06 09:21 | 50.90176 | 4.49807 | 131 ft | 11 kts | 101° |
| 2026-05-06 09:22 | 50.90197 | 4.49926 | 124 ft | 12 kts | 62° |
| 2026-05-06 09:22 | 50.90237 | 4.50047 | 121 ft | 13 kts | 62° |
| 2026-05-06 09:22 | 50.90283 | 4.50176 | 125 ft | 14 kts | 54° |
| 2026-05-06 09:22 | 50.90364 | 4.50267 | 126 ft | 15 kts | 21° |
| 2026-05-06 09:23 | 50.90466 | 4.50312 | 124 ft | 16 kts | 14° |
| 2026-05-06 09:23 | 50.90577 | 4.50356 | 123 ft | 17 kts | 14° |
| 2026-05-06 09:23 | 50.90694 | 4.50405 | 122 ft | 18 kts | 15° |
| 2026-05-06 09:23 | 50.90812 | 4.50454 | 121 ft | 17 kts | 15° |
| 2026-05-06 09:24 | 50.90929 | 4.50502 | 119 ft | 17 kts | 14° |
| 2026-05-06 09:24 | 50.91047 | 4.50531 | 120 ft | 17 kts | 358° |
| 2026-05-06 09:24 | 50.91162 | 4.50500 | 121 ft | 16 kts | 336° |
| 2026-05-06 09:24 | 50.91233 | 4.50375 | 119 ft | 15 kts | 287° |
| 2026-05-06 09:25 | 50.91241 | 4.50263 | 123 ft | 9 kts | 264° |
| 2026-05-06 09:25 | 50.91226 | 4.50189 | 119 ft | 1 kts | 246° |
| 2026-05-06 09:25 | 50.91220 | 4.50167 | 119 ft | 5 kts | 246° |
| 2026-05-06 09:25 | 50.91167 | 4.49978 | 122 ft | 43 kts | 245° |
| 2026-05-06 09:26 | 50.90955 | 4.49249 | 120 ft | 101 kts | 245° |
| 2026-05-06 09:26 | 50.90587 | 4.47977 | 124 ft | 151 kts | 246° |
| 2026-05-06 09:26 | 50.90078 | 4.46274 | 335 ft | 181 kts | 244° |
| 2026-05-06 09:26 | 50.89522 | 4.44495 | 1146 ft | 178 kts | 250° |
| 2026-05-06 09:27 | 50.89339 | 4.42594 | 1755 ft | 177 kts | 290° |
| 2026-05-06 09:27 | 50.90056 | 4.41046 | 2022 ft | 186 kts | 331° |
| 2026-05-06 09:27 | 50.91231 | 4.39972 | 2294 ft | 207 kts | 332° |
| 2026-05-06 09:27 | 50.92357 | 4.38360 | 2572 ft | 232 kts | 310° |
| 2026-05-06 09:28 | 50.93082 | 4.35953 | 2968 ft | 254 kts | 285° |
| 2026-05-06 09:28 | 50.93127 | 4.33098 | 3503 ft | 266 kts | 260° |
| 2026-05-06 09:28 | 50.92814 | 4.30158 | 3965 ft | 275 kts | 263° |
| 2026-05-06 09:28 | 50.93047 | 4.27162 | 4425 ft | 276 kts | 285° |
| 2026-05-06 09:29 | 50.93934 | 4.24505 | 5067 ft | 270 kts | 309° |
| 2026-05-06 09:29 | 50.95113 | 4.22248 | 5910 ft | 264 kts | 313° |
| 2026-05-06 09:29 | 50.96360 | 4.20093 | 6594 ft | 267 kts | 312° |
| 2026-05-06 09:29 | 50.97579 | 4.17844 | 7237 ft | 270 kts | 312° |
| 2026-05-06 09:30 | 50.98804 | 4.15577 | 7944 ft | 272 kts | 312° |
| 2026-05-06 09:30 | 51.00026 | 4.13269 | 8703 ft | 274 kts | 309° |
| 2026-05-06 09:30 | 51.01228 | 4.10887 | 9357 ft | 278 kts | 308° |
| 2026-05-06 09:30 | 51.02437 | 4.08455 | 9984 ft | 282 kts | 308° |
| 2026-05-06 09:31 | 51.03657 | 4.05920 | 10342 ft | 296 kts | 309° |
| 2026-05-06 09:31 | 51.04981 | 4.03300 | 10598 ft | 313 kts | 311° |
| 2026-05-06 09:31 | 51.06396 | 4.00553 | 10861 ft | 329 kts | 311° |
| 2026-05-06 09:31 | 51.07861 | 3.97667 | 11246 ft | 340 kts | 311° |
| 2026-05-06 09:32 | 51.09332 | 3.94734 | 11770 ft | 346 kts | 310° |
| 2026-05-06 09:32 | 51.10838 | 3.91711 | 12356 ft | 351 kts | 310° |
| 2026-05-06 09:32 | 51.12353 | 3.88626 | 12947 ft | 355 kts | 308° |
| 2026-05-06 09:32 | 51.13866 | 3.85485 | 13560 ft | 359 kts | 308° |
| 2026-05-06 09:33 | 51.15400 | 3.82314 | 14113 ft | 362 kts | 308° |
| 2026-05-06 09:33 | 51.16950 | 3.79131 | 14649 ft | 365 kts | 308° |
| 2026-05-06 09:33 | 51.18518 | 3.75924 | 15223 ft | 367 kts | 307° |
| 2026-05-06 09:33 | 51.20079 | 3.72685 | 15816 ft | 370 kts | 305° |
| 2026-05-06 09:34 | 51.21635 | 3.69397 | 16371 ft | 372 kts | 303° |
| 2026-05-06 09:34 | 51.23054 | 3.65952 | 16995 ft | 372 kts | 298° |
| 2026-05-06 09:34 | 51.24063 | 3.62128 | 17468 ft | 377 kts | 289° |
| 2026-05-06 09:34 | 51.24784 | 3.58081 | 17998 ft | 380 kts | 282° |
| 2026-05-06 09:35 | 51.25312 | 3.54006 | 18577 ft | 379 kts | 278° |
| 2026-05-06 09:35 | 51.25731 | 3.49829 | 18939 ft | 384 kts | 277° |
| 2026-05-06 09:35 | 51.26185 | 3.45588 | 19259 ft | 389 kts | 281° |
| 2026-05-06 09:35 | 51.26732 | 3.41351 | 19748 ft | 391 kts | 282° |
| 2026-05-06 09:36 | 51.27320 | 3.37074 | 20115 ft | 396 kts | 282° |
| 2026-05-06 09:36 | 51.27898 | 3.32763 | 20560 ft | 398 kts | 281° |
| 2026-05-06 09:36 | 51.28440 | 3.28405 | 20939 ft | 402 kts | 280° |
| 2026-05-06 09:36 | 51.28961 | 3.24016 | 21377 ft | 403 kts | 276° |
| 2026-05-06 09:37 | 51.29402 | 3.19586 | 21773 ft | 404 kts | 275° |
| 2026-05-06 09:37 | 51.29823 | 3.15112 | 22094 ft | 407 kts | 275° |
| 2026-05-06 09:37 | 51.30275 | 3.10647 | 22511 ft | 408 kts | 276° |
| 2026-05-06 09:37 | 51.30769 | 3.06145 | 22795 ft | 412 kts | 276° |
| 2026-05-06 09:38 | 51.31299 | 3.01662 | 23262 ft | 411 kts | 276° |
| 2026-05-06 09:38 | 51.31849 | 2.97167 | 23538 ft | 414 kts | 277° |
| 2026-05-06 09:38 | 51.32405 | 2.92727 | 23893 ft | 413 kts | 277° |
| 2026-05-06 09:38 | 51.32948 | 2.88201 | 24069 ft | 417 kts | 273° |
| 2026-05-06 09:39 | 51.33460 | 2.83603 | 24235 ft | 421 kts | 280° |
| 2026-05-06 09:39 | 51.34128 | 2.79018 | 24572 ft | 423 kts | 282° |
| 2026-05-06 09:39 | 51.34852 | 2.74444 | 24889 ft | 425 kts | 282° |
| 2026-05-06 09:39 | 51.35536 | 2.69850 | 25257 ft | 424 kts | 277° |
| 2026-05-06 09:40 | 51.36093 | 2.65189 | 25418 ft | 429 kts | 275° |
| 2026-05-06 09:40 | 51.36597 | 2.60483 | 25721 ft | 429 kts | 274° |
| 2026-05-06 09:40 | 51.37521 | 2.50987 | 26083 ft | 434 kts | 272° |
| 2026-05-06 09:41 | 51.37976 | 2.46190 | 26266 ft | 436 kts | 272° |
| 2026-05-06 09:41 | 51.38464 | 2.41461 | 26539 ft | 436 kts | 273° |
| 2026-05-06 09:41 | 51.38993 | 2.36664 | 26777 ft | 436 kts | 274° |
| 2026-05-06 09:41 | 51.39399 | 2.33138 | 26957 ft | 437 kts | 274° |
| 2026-05-06 09:42 | 51.39518 | 2.32124 | 27011 ft | 437 kts | 273° |
| 2026-05-06 09:42 | 51.40079 | 2.27330 | 27152 ft | 439 kts | 274° |
| 2026-05-06 09:42 | 51.40659 | 2.22513 | 27318 ft | 441 kts | 274° |
| 2026-05-06 09:42 | 51.41248 | 2.17680 | 27495 ft | 443 kts | 274° |
| 2026-05-06 09:43 | 51.41612 | 2.12809 | 27805 ft | 440 kts | 267° |
| 2026-05-06 09:43 | 51.41730 | 2.07887 | 27915 ft | 442 kts | 263° |
| 2026-05-06 09:43 | 51.41715 | 2.02947 | 28092 ft | 443 kts | 261° |
| 2026-05-06 09:43 | 51.41497 | 1.98013 | 28184 ft | 446 kts | 259° |
| 2026-05-06 09:44 | 51.41314 | 1.93036 | 28353 ft | 448 kts | 261° |
| 2026-05-06 09:44 | 51.41214 | 1.88053 | 28702 ft | 445 kts | 262° |
| 2026-05-06 09:44 | 51.41193 | 1.83111 | 29027 ft | 444 kts | 263° |
| 2026-05-06 09:44 | 51.41222 | 1.78231 | 28869 ft | 445 kts | 274° |
| 2026-05-06 09:45 | 51.41478 | 1.73245 | 29051 ft | 450 kts | 276° |
| 2026-05-06 09:45 | 51.41860 | 1.68281 | 29500 ft | 449 kts | 276° |
| 2026-05-06 09:45 | 51.42214 | 1.63296 | 29843 ft | 450 kts | 274° |
| 2026-05-06 09:45 | 51.42475 | 1.58294 | 30075 ft | 452 kts | 270° |
| 2026-05-06 09:46 | 51.42624 | 1.53245 | 30259 ft | 454 kts | 272° |
| 2026-05-06 09:46 | 51.42804 | 1.48183 | 30420 ft | 457 kts | 269° |
| 2026-05-06 09:46 | 51.42953 | 1.43085 | 30678 ft | 458 kts | 269° |
| 2026-05-06 09:46 | 51.43152 | 1.38016 | 31045 ft | 456 kts | 273° |
| 2026-05-06 09:47 | 51.43423 | 1.32944 | 31308 ft | 457 kts | 274° |
| 2026-05-06 09:47 | 51.43709 | 1.27855 | 31578 ft | 458 kts | 274° |
| 2026-05-06 09:47 | 51.43982 | 1.22760 | 31855 ft | 458 kts | 274° |
| 2026-05-06 09:47 | 51.44234 | 1.17667 | 32188 ft | 457 kts | 273° |
| 2026-05-06 09:48 | 51.44465 | 1.12606 | 32588 ft | 455 kts | 273° |
| 2026-05-06 09:48 | 51.44678 | 1.07527 | 32794 ft | 456 kts | 270° |
| 2026-05-06 09:48 | 51.44763 | 1.04826 | 32876 ft | 458 kts | 271° |
| 2026-05-06 09:49 | 51.44942 | 0.99701 | 33098 ft | 458 kts | 272° |
| 2026-05-06 09:49 | 51.45148 | 0.94609 | 33449 ft | 457 kts | 274° |
| 2026-05-06 09:49 | 51.45354 | 0.89569 | 33969 ft | 451 kts | 272° |
| 2026-05-06 09:49 | 51.45468 | 0.86237 | 34093 ft | 452 kts | 272° |
| 2026-05-06 09:50 | 51.45641 | 0.81196 | 34255 ft | 453 kts | 274° |
| 2026-05-06 09:50 | 51.45845 | 0.76140 | 34419 ft | 454 kts | 274° |
| 2026-05-06 09:50 | 51.46060 | 0.71096 | 34753 ft | 451 kts | 274° |
| 2026-05-06 09:50 | 51.46253 | 0.66102 | 35038 ft | 448 kts | 275° |
| 2026-05-06 09:51 | 51.46335 | 0.63612 | 35053 ft | 451 kts | 273° |
| 2026-05-06 09:51 | 51.46599 | 0.56605 | 35193 ft | 454 kts | 274° |
| 2026-05-06 09:52 | 51.46798 | 0.51545 | 35376 ft | 454 kts | 274° |
| 2026-05-06 09:52 | 51.46994 | 0.46496 | 35666 ft | 451 kts | 274° |
| 2026-05-06 09:52 | 51.47179 | 0.41556 | 35932 ft | 449 kts | 273° |
| 2026-05-06 09:52 | 51.47361 | 0.36556 | 35982 ft | 448 kts | 273° |
| 2026-05-06 09:53 | 51.47708 | 0.26583 | 35988 ft | 446 kts | 273° |
| 2026-05-06 09:53 | 51.48039 | 0.16698 | 35993 ft | 445 kts | 273° |
| 2026-05-06 09:54 | 51.48363 | 0.06761 | 35996 ft | 447 kts | 273° |
| 2026-05-06 09:54 | 51.48678 | -0.03125 | 35981 ft | 446 kts | 272° |
| 2026-05-06 09:55 | 51.48987 | -0.13065 | 35988 ft | 447 kts | 272° |
| 2026-05-06 09:55 | 51.49288 | -0.23027 | 35992 ft | 447 kts | 272° |
| 2026-05-06 09:56 | 51.49580 | -0.32970 | 35992 ft | 446 kts | 272° |
| 2026-05-06 09:56 | 51.49863 | -0.42921 | 35993 ft | 447 kts | 272° |
| 2026-05-06 09:57 | 51.50138 | -0.52869 | 35993 ft | 446 kts | 272° |
| 2026-05-06 09:57 | 51.50405 | -0.62835 | 35995 ft | 447 kts | 272° |
| 2026-05-06 09:58 | 51.50664 | -0.72803 | 35992 ft | 446 kts | 272° |
| 2026-05-06 09:58 | 51.50912 | -0.82711 | 35993 ft | 447 kts | 272° |
| 2026-05-06 09:59 | 51.51154 | -0.92682 | 35994 ft | 447 kts | 272° |
| 2026-05-06 09:59 | 51.51387 | -1.02645 | 36018 ft | 446 kts | 272° |
| 2026-05-06 10:00 | 51.51612 | -1.12598 | 36021 ft | 446 kts | 272° |
| 2026-05-06 10:00 | 51.51827 | -1.22546 | 36020 ft | 445 kts | 272° |
| 2026-05-06 10:01 | 51.52035 | -1.32500 | 36018 ft | 446 kts | 271° |
| 2026-05-06 10:01 | 51.52234 | -1.42454 | 36013 ft | 445 kts | 271° |
| 2026-05-06 10:02 | 51.52423 | -1.52338 | 36016 ft | 446 kts | 271° |
| 2026-05-06 10:02 | 51.52606 | -1.62297 | 36019 ft | 445 kts | 271° |
| 2026-05-06 10:03 | 51.52780 | -1.72245 | 36022 ft | 445 kts | 271° |
| 2026-05-06 10:03 | 51.52945 | -1.82179 | 36025 ft | 445 kts | 271° |
| 2026-05-06 10:04 | 51.53102 | -1.92121 | 36017 ft | 445 kts | 271° |
| 2026-05-06 10:04 | 51.53250 | -2.02016 | 36020 ft | 446 kts | 271° |
| 2026-05-06 10:05 | 51.53390 | -2.11971 | 36024 ft | 445 kts | 271° |
| 2026-05-06 10:05 | 51.53522 | -2.21924 | 36024 ft | 446 kts | 271° |
| 2026-05-06 10:06 | 51.53645 | -2.31878 | 36024 ft | 445 kts | 271° |
| 2026-05-06 10:06 | 51.53760 | -2.41826 | 36024 ft | 445 kts | 271° |
| 2026-05-06 10:07 | 51.53866 | -2.51760 | 36022 ft | 444 kts | 271° |
| 2026-05-06 10:07 | 51.53964 | -2.61681 | 36023 ft | 444 kts | 271° |
| 2026-05-06 10:08 | 51.54053 | -2.71604 | 36022 ft | 444 kts | 271° |
| 2026-05-06 10:08 | 51.54134 | -2.81449 | 36043 ft | 444 kts | 270° |
| 2026-05-06 10:09 | 51.54207 | -2.91359 | 36039 ft | 443 kts | 270° |
| 2026-05-06 10:09 | 51.54271 | -3.01248 | 36038 ft | 442 kts | 270° |
| 2026-05-06 10:10 | 51.54326 | -3.11105 | 36022 ft | 441 kts | 270° |
| 2026-05-06 10:10 | 51.54374 | -3.20975 | 36021 ft | 441 kts | 270° |
| 2026-05-06 10:11 | 51.54413 | -3.30845 | 36022 ft | 442 kts | 270° |
| 2026-05-06 10:11 | 51.54444 | -3.40713 | 36022 ft | 441 kts | 270° |
| 2026-05-06 10:12 | 51.54467 | -3.50554 | 36020 ft | 440 kts | 270° |
| 2026-05-06 10:12 | 51.54481 | -3.60405 | 36019 ft | 440 kts | 270° |
| 2026-05-06 10:13 | 51.54487 | -3.70183 | 36020 ft | 440 kts | 270° |
| 2026-05-06 10:13 | 51.54485 | -3.80030 | 36018 ft | 440 kts | 270° |
| 2026-05-06 10:14 | 51.54475 | -3.89862 | 36021 ft | 440 kts | 270° |
| 2026-05-06 10:14 | 51.54456 | -3.99678 | 36021 ft | 439 kts | 270° |
| 2026-05-06 10:15 | 51.54430 | -4.09490 | 36020 ft | 439 kts | 270° |
| 2026-05-06 10:15 | 51.54395 | -4.19241 | 36020 ft | 439 kts | 270° |
| 2026-05-06 10:16 | 51.54352 | -4.29061 | 36023 ft | 439 kts | 269° |
| 2026-05-06 10:16 | 51.54301 | -4.38878 | 36023 ft | 439 kts | 269° |
| 2026-05-06 10:17 | 51.54242 | -4.48670 | 36023 ft | 438 kts | 269° |
| 2026-05-06 10:17 | 51.54175 | -4.58399 | 36023 ft | 438 kts | 269° |
| 2026-05-06 10:18 | 51.54099 | -4.68195 | 36026 ft | 438 kts | 269° |
| 2026-05-06 10:18 | 51.54016 | -4.77994 | 36026 ft | 438 kts | 269° |
| 2026-05-06 10:19 | 51.53924 | -4.87793 | 36028 ft | 439 kts | 269° |
| 2026-05-06 10:19 | 51.53823 | -4.97610 | 36029 ft | 439 kts | 269° |
| 2026-05-06 10:20 | 51.53715 | -5.07407 | 36029 ft | 439 kts | 269° |
| 2026-05-06 10:20 | 51.53600 | -5.17146 | 36028 ft | 439 kts | 269° |
| 2026-05-06 10:21 | 51.53475 | -5.26959 | 36029 ft | 439 kts | 269° |
| 2026-05-06 10:21 | 51.53342 | -5.36755 | 36029 ft | 439 kts | 269° |
| 2026-05-06 10:22 | 51.53201 | -5.46566 | 36031 ft | 439 kts | 269° |
| 2026-05-06 10:22 | 51.53052 | -5.56362 | 36031 ft | 439 kts | 269° |
| 2026-05-06 10:23 | 51.52895 | -5.66155 | 36032 ft | 439 kts | 269° |
| 2026-05-06 10:23 | 51.52730 | -5.75955 | 36031 ft | 439 kts | 269° |
| 2026-05-06 10:24 | 51.52556 | -5.85754 | 36034 ft | 439 kts | 269° |
| 2026-05-06 10:24 | 51.52376 | -5.95506 | 36034 ft | 439 kts | 268° |
| 2026-05-06 10:25 | 51.52185 | -6.05320 | 36037 ft | 439 kts | 268° |
| 2026-05-06 10:25 | 51.51987 | -6.15129 | 36037 ft | 439 kts | 268° |
| 2026-05-06 10:26 | 51.51780 | -6.24952 | 36042 ft | 439 kts | 268° |
| 2026-05-06 10:26 | 51.51567 | -6.34698 | 36042 ft | 440 kts | 268° |
| 2026-05-06 10:27 | 51.51345 | -6.44503 | 36045 ft | 440 kts | 268° |
| 2026-05-06 10:27 | 51.51113 | -6.54328 | 36045 ft | 440 kts | 268° |
| 2026-05-06 10:28 | 51.50874 | -6.64150 | 36046 ft | 440 kts | 268° |
| 2026-05-06 10:28 | 51.50626 | -6.73961 | 36045 ft | 440 kts | 268° |
| 2026-05-06 10:29 | 51.50372 | -6.83724 | 36045 ft | 440 kts | 268° |
| 2026-05-06 10:29 | 51.50107 | -6.93552 | 36045 ft | 441 kts | 268° |
| 2026-05-06 10:30 | 51.49835 | -7.03375 | 36048 ft | 441 kts | 268° |
| 2026-05-06 10:30 | 51.49554 | -7.13202 | 36048 ft | 440 kts | 268° |
| 2026-05-06 10:31 | 51.49265 | -7.23022 | 36037 ft | 441 kts | 268° |
| 2026-05-06 10:31 | 51.48968 | -7.32862 | 36048 ft | 441 kts | 268° |
| 2026-05-06 10:32 | 51.48661 | -7.42707 | 36048 ft | 441 kts | 268° |
| 2026-05-06 10:32 | 51.48349 | -7.52487 | 36042 ft | 441 kts | 268° |
| 2026-05-06 10:33 | 51.48026 | -7.62335 | 36042 ft | 441 kts | 268° |
| 2026-05-06 10:33 | 51.47696 | -7.72176 | 36036 ft | 441 kts | 268° |
| 2026-05-06 10:34 | 51.47356 | -7.82029 | 36040 ft | 442 kts | 268° |
| 2026-05-06 10:34 | 51.47011 | -7.91822 | 36034 ft | 442 kts | 268° |
| 2026-05-06 10:35 | 51.46654 | -8.01680 | 36034 ft | 443 kts | 267° |
| 2026-05-06 10:35 | 51.46290 | -8.11538 | 36031 ft | 442 kts | 267° |
| 2026-05-06 10:36 | 51.45917 | -8.21401 | 36030 ft | 443 kts | 267° |
| 2026-05-06 10:36 | 51.45537 | -8.31223 | 36034 ft | 443 kts | 267° |
| 2026-05-06 10:37 | 51.45147 | -8.41092 | 36032 ft | 443 kts | 267° |
| 2026-05-06 10:37 | 51.44749 | -8.50952 | 36032 ft | 443 kts | 267° |
| 2026-05-06 10:38 | 51.44342 | -8.60823 | 36032 ft | 443 kts | 267° |
| 2026-05-06 10:38 | 51.43927 | -8.70689 | 36030 ft | 444 kts | 267° |
| 2026-05-06 10:39 | 51.43576 | -8.78884 | 36033 ft | 444 kts | 267° |
| 2026-05-06 10:39 | 51.43146 | -8.88757 | 36042 ft | 444 kts | 267° |
| 2026-05-06 10:40 | 51.42635 | -9.00232 | 36036 ft | 444 kts | 267° |
| 2026-05-06 10:40 | 51.42260 | -9.08494 | 36040 ft | 444 kts | 266° |
| 2026-05-06 10:41 | 51.41805 | -9.18360 | 36037 ft | 444 kts | 266° |
| 2026-05-06 10:41 | 51.41341 | -9.28228 | 36036 ft | 445 kts | 266° |
| 2026-05-06 10:42 | 51.40871 | -9.38046 | 36042 ft | 445 kts | 266° |
| 2026-05-06 10:42 | 51.40390 | -9.47936 | 36038 ft | 445 kts | 266° |
| 2026-05-06 10:43 | 51.39900 | -9.57808 | 36041 ft | 445 kts | 266° |
| 2026-05-06 10:44 | 51.39149 | -9.72657 | 36041 ft | 448 kts | 266° |
| 2026-05-06 10:44 | 51.38635 | -9.82603 | 36037 ft | 448 kts | 266° |
| 2026-05-06 10:45 | 51.38113 | -9.92545 | 36038 ft | 448 kts | 266° |
| 2026-05-06 10:45 | 51.37585 | -10.02425 | 36040 ft | 448 kts | 266° |
| 2026-05-06 10:46 | 51.37045 | -10.12381 | 36044 ft | 448 kts | 266° |
| 2026-05-06 10:46 | 51.36496 | -10.22326 | 36047 ft | 448 kts | 266° |
| 2026-05-06 10:47 | 51.35941 | -10.32250 | 36042 ft | 447 kts | 266° |
| 2026-05-06 10:47 | 51.35382 | -10.42087 | 36051 ft | 447 kts | 265° |
| 2026-05-06 10:48 | 51.34811 | -10.51992 | 36049 ft | 447 kts | 265° |
| 2026-05-06 10:48 | 51.34231 | -10.61892 | 36048 ft | 448 kts | 265° |
| 2026-05-06 10:49 | 51.33642 | -10.71824 | 36045 ft | 449 kts | 265° |
| 2026-05-06 10:49 | 51.33044 | -10.81749 | 36054 ft | 449 kts | 265° |
| 2026-05-06 10:50 | 51.32436 | -10.91684 | 36054 ft | 449 kts | 265° |
| 2026-05-06 10:50 | 51.31831 | -11.01421 | 36049 ft | 431 kts | 265° |
| 2026-05-06 10:51 | 51.31236 | -11.10893 | 36055 ft | 428 kts | 265° |
| 2026-05-06 10:51 | 51.30637 | -11.20330 | 36061 ft | 430 kts | 265° |
| 2026-05-06 10:52 | 51.30025 | -11.29834 | 36060 ft | 430 kts | 265° |
| 2026-05-06 10:52 | 51.29405 | -11.39341 | 36061 ft | 431 kts | 265° |